sensor_id;sensor_type;location;lat;lon;timestamp;P1;durP1;ratioP1;P2;durP2;ratioP2
10565;SDS011;5331;48.148;16.326;2024-03-06T00:01:33;17.27;;;12.47;;
10565;SDS011;5331;48.148;16.326;2024-03-06T00:04:00;18.10;;;13.23;;
10565;SDS011;5331;48.148;16.326;2024-03-06T00:06:28;20.13;;;14.17;;
10565;SDS011;5331;48.148;16.326;2024-03-06T00:08:56;18.27;;;13.70;;
10565;SDS011;5331;48.148;16.326;2024-03-06T00:26:49;20.65;;;15.27;;
10565;SDS011;5331;48.148;16.326;2024-03-06T00:29:15;17.63;;;13.63;;
10565;SDS011;5331;48.148;16.326;2024-03-06T00:31:42;17.60;;;13.00;;
10565;SDS011;5331;48.148;16.326;2024-03-06T00:34:09;20.73;;;14.90;;
10565;SDS011;5331;48.148;16.326;2024-03-06T00:36:36;20.80;;;14.30;;
10565;SDS011;5331;48.148;16.326;2024-03-06T00:39:02;19.90;;;13.90;;
10565;SDS011;5331;48.148;16.326;2024-03-06T00:41:29;22.17;;;15.47;;
10565;SDS011;5331;48.148;16.326;2024-03-06T00:56:56;21.90;;;15.88;;
10565;SDS011;5331;48.148;16.326;2024-03-06T00:59:23;22.60;;;15.60;;
10565;SDS011;5331;48.148;16.326;2024-03-06T01:01:49;19.90;;;14.67;;
10565;SDS011;5331;48.148;16.326;2024-03-06T01:04:15;20.40;;;15.20;;
10565;SDS011;5331;48.148;16.326;2024-03-06T01:06:41;24.50;;;17.07;;
10565;SDS011;5331;48.148;16.326;2024-03-06T01:09:07;21.33;;;15.50;;
10565;SDS011;5331;48.148;16.326;2024-03-06T01:11:34;25.20;;;17.43;;
10565;SDS011;5331;48.148;16.326;2024-03-06T01:29:22;26.97;;;19.27;;
10565;SDS011;5331;48.148;16.326;2024-03-06T01:31:48;26.03;;;18.17;;
10565;SDS011;5331;48.148;16.326;2024-03-06T01:34:15;27.33;;;19.37;;
10565;SDS011;5331;48.148;16.326;2024-03-06T01:36:41;28.00;;;20.43;;
10565;SDS011;5331;48.148;16.326;2024-03-06T01:39:07;31.00;;;21.27;;
10565;SDS011;5331;48.148;16.326;2024-03-06T01:41:34;33.60;;;21.17;;
10565;SDS011;5331;48.148;16.326;2024-03-06T01:44:01;28.03;;;20.13;;
10565;SDS011;5331;48.148;16.326;2024-03-06T01:46:29;29.17;;;19.43;;
10565;SDS011;5331;48.148;16.326;2024-03-06T02:04:22;37.60;;;22.83;;
10565;SDS011;5331;48.148;16.326;2024-03-06T02:06:50;30.93;;;20.97;;
10565;SDS011;5331;48.148;16.326;2024-03-06T02:09:17;34.47;;;22.97;;
10565;SDS011;5331;48.148;16.326;2024-03-06T02:11:44;33.73;;;21.83;;
10565;SDS011;5331;48.148;16.326;2024-03-06T02:14:11;34.03;;;22.00;;
10565;SDS011;5331;48.148;16.326;2024-03-06T02:16:37;35.43;;;22.00;;
10565;SDS011;5331;48.148;16.326;2024-03-06T02:19:04;34.60;;;23.17;;
10565;SDS011;5331;48.148;16.326;2024-03-06T02:36:59;38.00;;;23.42;;
10565;SDS011;5331;48.148;16.326;2024-03-06T02:39:25;39.20;;;24.17;;
10565;SDS011;5331;48.148;16.326;2024-03-06T02:41:51;37.33;;;22.33;;
10565;SDS011;5331;48.148;16.326;2024-03-06T02:44:17;38.20;;;24.83;;
10565;SDS011;5331;48.148;16.326;2024-03-06T02:46:46;37.93;;;24.47;;
10565;SDS011;5331;48.148;16.326;2024-03-06T02:49:13;38.33;;;24.23;;
10565;SDS011;5331;48.148;16.326;2024-03-06T02:51:40;39.57;;;25.07;;
10565;SDS011;5331;48.148;16.326;2024-03-06T03:11:49;43.33;;;27.53;;
10565;SDS011;5331;48.148;16.326;2024-03-06T03:14:15;37.60;;;24.90;;
10565;SDS011;5331;48.148;16.326;2024-03-06T03:16:41;39.80;;;24.07;;
10565;SDS011;5331;48.148;16.326;2024-03-06T03:19:08;39.43;;;25.10;;
10565;SDS011;5331;48.148;16.326;2024-03-06T03:21:34;42.37;;;26.30;;
10565;SDS011;5331;48.148;16.326;2024-03-06T03:24:00;45.47;;;26.13;;
10565;SDS011;5331;48.148;16.326;2024-03-06T03:26:26;44.83;;;27.60;;
10565;SDS011;5331;48.148;16.326;2024-03-06T03:28:53;43.53;;;27.20;;
10565;SDS011;5331;48.148;16.326;2024-03-06T03:48:48;42.90;;;26.93;;
10565;SDS011;5331;48.148;16.326;2024-03-06T03:51:14;44.33;;;27.13;;
10565;SDS011;5331;48.148;16.326;2024-03-06T03:53:41;45.87;;;27.43;;
10565;SDS011;5331;48.148;16.326;2024-03-06T03:56:07;43.20;;;26.80;;
10565;SDS011;5331;48.148;16.326;2024-03-06T03:58:34;44.60;;;27.90;;
10565;SDS011;5331;48.148;16.326;2024-03-06T04:01:00;46.20;;;27.43;;
10565;SDS011;5331;48.148;16.326;2024-03-06T04:03:26;46.90;;;30.10;;
10565;SDS011;5331;48.148;16.326;2024-03-06T04:19:01;42.67;;;27.23;;
10565;SDS011;5331;48.148;16.326;2024-03-06T04:21:28;44.50;;;25.97;;
10565;SDS011;5331;48.148;16.326;2024-03-06T04:23:54;42.37;;;26.23;;
10565;SDS011;5331;48.148;16.326;2024-03-06T04:26:21;43.40;;;25.73;;
10565;SDS011;5331;48.148;16.326;2024-03-06T04:28:47;48.63;;;28.37;;
10565;SDS011;5331;48.148;16.326;2024-03-06T04:31:13;46.20;;;27.97;;
10565;SDS011;5331;48.148;16.326;2024-03-06T04:33:40;44.83;;;27.60;;
10565;SDS011;5331;48.148;16.326;2024-03-06T04:51:35;48.80;;;27.53;;
10565;SDS011;5331;48.148;16.326;2024-03-06T04:54:01;46.57;;;26.70;;
10565;SDS011;5331;48.148;16.326;2024-03-06T04:56:28;44.90;;;25.30;;
10565;SDS011;5331;48.148;16.326;2024-03-06T04:58:54;43.50;;;26.03;;
10565;SDS011;5331;48.148;16.326;2024-03-06T05:01:20;48.23;;;27.97;;
10565;SDS011;5331;48.148;16.326;2024-03-06T05:03:47;48.90;;;28.47;;
10565;SDS011;5331;48.148;16.326;2024-03-06T05:06:14;45.53;;;28.37;;
10565;SDS011;5331;48.148;16.326;2024-03-06T05:22:38;42.00;;;25.73;;
10565;SDS011;5331;48.148;16.326;2024-03-06T05:25:04;42.40;;;25.80;;
10565;SDS011;5331;48.148;16.326;2024-03-06T05:27:31;39.97;;;25.80;;
10565;SDS011;5331;48.148;16.326;2024-03-06T05:29:57;44.07;;;26.33;;
10565;SDS011;5331;48.148;16.326;2024-03-06T05:32:23;40.07;;;25.33;;
10565;SDS011;5331;48.148;16.326;2024-03-06T05:34:50;42.70;;;25.57;;
10565;SDS011;5331;48.148;16.326;2024-03-06T05:37:16;42.13;;;27.33;;
10565;SDS011;5331;48.148;16.326;2024-03-06T05:39:43;42.87;;;26.87;;
10565;SDS011;5331;48.148;16.326;2024-03-06T05:57:37;40.60;;;25.83;;
10565;SDS011;5331;48.148;16.326;2024-03-06T06:00:04;38.80;;;23.80;;
10565;SDS011;5331;48.148;16.326;2024-03-06T06:02:36;41.03;;;24.43;;
10565;SDS011;5331;48.148;16.326;2024-03-06T06:05:02;39.43;;;23.40;;
10565;SDS011;5331;48.148;16.326;2024-03-06T06:07:29;41.03;;;24.07;;
10565;SDS011;5331;48.148;16.326;2024-03-06T06:09:55;37.13;;;23.17;;
10565;SDS011;5331;48.148;16.326;2024-03-06T06:12:22;36.57;;;23.07;;
10565;SDS011;5331;48.148;16.326;2024-03-06T06:30:16;34.17;;;21.40;;
10565;SDS011;5331;48.148;16.326;2024-03-06T06:32:43;31.37;;;19.33;;
10565;SDS011;5331;48.148;16.326;2024-03-06T06:35:10;29.17;;;19.13;;
10565;SDS011;5331;48.148;16.326;2024-03-06T06:37:38;27.53;;;18.00;;
10565;SDS011;5331;48.148;16.326;2024-03-06T06:40:05;27.57;;;17.93;;
10565;SDS011;5331;48.148;16.326;2024-03-06T06:42:34;25.73;;;16.95;;
10565;SDS011;5331;48.148;16.326;2024-03-06T06:45:05;28.77;;;16.97;;
10565;SDS011;5331;48.148;16.326;2024-03-06T06:47:33;24.93;;;17.10;;
10565;SDS011;5331;48.148;16.326;2024-03-06T07:05:28;25.75;;;18.50;;
10565;SDS011;5331;48.148;16.326;2024-03-06T07:07:54;26.13;;;16.45;;
10565;SDS011;5331;48.148;16.326;2024-03-06T07:10:21;26.60;;;16.45;;
10565;SDS011;5331;48.148;16.326;2024-03-06T07:12:47;28.10;;;17.52;;
10565;SDS011;5331;48.148;16.326;2024-03-06T07:15:14;26.50;;;16.17;;
10565;SDS011;5331;48.148;16.326;2024-03-06T07:17:40;23.42;;;16.50;;
10565;SDS011;5331;48.148;16.326;2024-03-06T07:20:07;23.70;;;15.68;;
10565;SDS011;5331;48.148;16.326;2024-03-06T07:40:25;25.75;;;15.00;;
10565;SDS011;5331;48.148;16.326;2024-03-06T07:42:51;22.60;;;15.48;;
10565;SDS011;5331;48.148;16.326;2024-03-06T07:45:17;24.27;;;16.05;;
10565;SDS011;5331;48.148;16.326;2024-03-06T07:47:45;20.63;;;14.82;;
10565;SDS011;5331;48.148;16.326;2024-03-06T07:50:11;19.58;;;14.85;;
10565;SDS011;5331;48.148;16.326;2024-03-06T07:52:43;22.48;;;15.25;;
10565;SDS011;5331;48.148;16.326;2024-03-06T07:55:10;23.52;;;14.90;;
10565;SDS011;5331;48.148;16.326;2024-03-06T07:57:37;18.48;;;13.57;;
10565;SDS011;5331;48.148;16.326;2024-03-06T08:15:30;20.65;;;15.85;;
10565;SDS011;5331;48.148;16.326;2024-03-06T08:17:56;20.00;;;15.07;;
10565;SDS011;5331;48.148;16.326;2024-03-06T08:20:23;20.38;;;15.23;;
10565;SDS011;5331;48.148;16.326;2024-03-06T08:22:49;20.05;;;14.57;;
10565;SDS011;5331;48.148;16.326;2024-03-06T08:25:15;20.90;;;14.05;;
10565;SDS011;5331;48.148;16.326;2024-03-06T08:27:42;20.98;;;14.40;;
10565;SDS011;5331;48.148;16.326;2024-03-06T08:30:08;20.20;;;13.40;;
10565;SDS011;5331;48.148;16.326;2024-03-06T08:50:02;19.80;;;14.50;;
10565;SDS011;5331;48.148;16.326;2024-03-06T08:52:29;20.52;;;13.82;;
10565;SDS011;5331;48.148;16.326;2024-03-06T08:54:56;19.67;;;13.68;;
10565;SDS011;5331;48.148;16.326;2024-03-06T08:57:22;18.10;;;13.00;;
10565;SDS011;5331;48.148;16.326;2024-03-06T08:59:49;20.45;;;13.93;;
10565;SDS011;5331;48.148;16.326;2024-03-06T09:02:17;16.85;;;12.27;;
10565;SDS011;5331;48.148;16.326;2024-03-06T09:04:44;19.40;;;12.60;;
10565;SDS011;5331;48.148;16.326;2024-03-06T09:58:11;17.77;;;12.95;;
10565;SDS011;5331;48.148;16.326;2024-03-06T10:00:37;16.65;;;12.27;;
10565;SDS011;5331;48.148;16.326;2024-03-06T10:03:04;16.30;;;12.43;;
10565;SDS011;5331;48.148;16.326;2024-03-06T10:05:31;17.80;;;12.27;;
10565;SDS011;5331;48.148;16.326;2024-03-06T10:07:58;17.05;;;12.02;;
10565;SDS011;5331;48.148;16.326;2024-03-06T10:10:26;17.38;;;12.57;;
10565;SDS011;5331;48.148;16.326;2024-03-06T10:12:52;17.52;;;12.77;;
10565;SDS011;5331;48.148;16.326;2024-03-06T10:15:20;19.63;;;13.77;;
10565;SDS011;5331;48.148;16.326;2024-03-06T10:35:00;18.40;;;13.85;;
10565;SDS011;5331;48.148;16.326;2024-03-06T10:37:26;23.42;;;13.70;;
10565;SDS011;5331;48.148;16.326;2024-03-06T10:39:54;19.30;;;12.90;;
10565;SDS011;5331;48.148;16.326;2024-03-06T10:42:23;19.08;;;11.95;;
10565;SDS011;5331;48.148;16.326;2024-03-06T10:44:54;19.10;;;12.43;;
10565;SDS011;5331;48.148;16.326;2024-03-06T10:47:24;17.25;;;12.30;;
10565;SDS011;5331;48.148;16.326;2024-03-06T10:49:52;15.57;;;11.75;;
10565;SDS011;5331;48.148;16.326;2024-03-06T11:06:20;13.48;;;11.23;;
10565;SDS011;5331;48.148;16.326;2024-03-06T11:08:47;15.05;;;10.65;;
10565;SDS011;5331;48.148;16.326;2024-03-06T11:11:23;16.55;;;12.18;;
10565;SDS011;5331;48.148;16.326;2024-03-06T11:13:50;16.17;;;11.52;;
10565;SDS011;5331;48.148;16.326;2024-03-06T11:16:20;15.15;;;11.13;;
10565;SDS011;5331;48.148;16.326;2024-03-06T11:18:52;15.65;;;11.55;;
10565;SDS011;5331;48.148;16.326;2024-03-06T11:21:32;17.70;;;11.48;;
10565;SDS011;5331;48.148;16.326;2024-03-06T11:39:43;15.35;;;12.00;;
10565;SDS011;5331;48.148;16.326;2024-03-06T11:42:10;14.93;;;12.18;;
10565;SDS011;5331;48.148;16.326;2024-03-06T11:44:52;14.63;;;11.38;;
10565;SDS011;5331;48.148;16.326;2024-03-06T11:47:19;14.85;;;10.98;;
10565;SDS011;5331;48.148;16.326;2024-03-06T11:49:45;15.60;;;11.55;;
10565;SDS011;5331;48.148;16.326;2024-03-06T11:52:12;18.02;;;11.90;;
10565;SDS011;5331;48.148;16.326;2024-03-06T11:54:38;16.77;;;12.18;;
10565;SDS011;5331;48.148;16.326;2024-03-06T12:20:00;17.48;;;13.10;;
10565;SDS011;5331;48.148;16.326;2024-03-06T12:22:30;19.13;;;13.68;;
10565;SDS011;5331;48.148;16.326;2024-03-06T12:24:58;16.20;;;12.48;;
10565;SDS011;5331;48.148;16.326;2024-03-06T12:27:25;17.27;;;13.15;;
10565;SDS011;5331;48.148;16.326;2024-03-06T12:29:52;19.90;;;13.57;;
10565;SDS011;5331;48.148;16.326;2024-03-06T12:32:19;17.70;;;13.00;;
10565;SDS011;5331;48.148;16.326;2024-03-06T12:34:55;19.02;;;12.57;;
10565;SDS011;5331;48.148;16.326;2024-03-06T12:55:11;18.65;;;14.82;;
10565;SDS011;5331;48.148;16.326;2024-03-06T12:57:37;19.40;;;14.15;;
10565;SDS011;5331;48.148;16.326;2024-03-06T13:00:04;17.40;;;13.13;;
10565;SDS011;5331;48.148;16.326;2024-03-06T13:02:40;21.13;;;13.32;;
10565;SDS011;5331;48.148;16.326;2024-03-06T13:05:07;19.20;;;13.45;;
10565;SDS011;5331;48.148;16.326;2024-03-06T13:07:33;18.05;;;13.43;;
10565;SDS011;5331;48.148;16.326;2024-03-06T13:10:01;19.88;;;13.23;;
10565;SDS011;5331;48.148;16.326;2024-03-06T13:27:55;18.17;;;13.07;;
10565;SDS011;5331;48.148;16.326;2024-03-06T13:30:21;19.00;;;14.15;;
10565;SDS011;5331;48.148;16.326;2024-03-06T13:32:48;19.73;;;13.90;;
10565;SDS011;5331;48.148;16.326;2024-03-06T13:35:14;20.08;;;13.52;;
10565;SDS011;5331;48.148;16.326;2024-03-06T13:37:41;20.83;;;13.57;;
10565;SDS011;5331;48.148;16.326;2024-03-06T13:40:08;18.85;;;13.25;;
10565;SDS011;5331;48.148;16.326;2024-03-06T13:42:35;20.42;;;13.63;;
10565;SDS011;5331;48.148;16.326;2024-03-06T13:45:03;18.25;;;14.13;;
10565;SDS011;5331;48.148;16.326;2024-03-06T14:03:05;21.80;;;15.55;;
10565;SDS011;5331;48.148;16.326;2024-03-06T14:05:31;19.33;;;13.90;;
10565;SDS011;5331;48.148;16.326;2024-03-06T14:07:58;20.38;;;13.23;;
10565;SDS011;5331;48.148;16.326;2024-03-06T14:10:28;17.90;;;12.80;;
10565;SDS011;5331;48.148;16.326;2024-03-06T14:12:58;19.02;;;13.07;;
10565;SDS011;5331;48.148;16.326;2024-03-06T14:15:25;19.33;;;12.93;;
10565;SDS011;5331;48.148;16.326;2024-03-06T14:18:16;18.60;;;13.15;;
10565;SDS011;5331;48.148;16.326;2024-03-06T14:36:08;18.80;;;13.15;;
10565;SDS011;5331;48.148;16.326;2024-03-06T14:38:34;17.98;;;12.68;;
10565;SDS011;5331;48.148;16.326;2024-03-06T14:41:01;19.50;;;13.07;;
10565;SDS011;5331;48.148;16.326;2024-03-06T14:43:31;19.33;;;13.30;;
10565;SDS011;5331;48.148;16.326;2024-03-06T14:45:59;17.85;;;12.23;;
10565;SDS011;5331;48.148;16.326;2024-03-06T14:48:25;17.67;;;12.57;;
10565;SDS011;5331;48.148;16.326;2024-03-06T14:50:51;15.23;;;11.57;;
10565;SDS011;5331;48.148;16.326;2024-03-06T15:08:52;15.98;;;11.95;;
10565;SDS011;5331;48.148;16.326;2024-03-06T15:11:18;16.80;;;11.32;;
10565;SDS011;5331;48.148;16.326;2024-03-06T15:13:46;16.42;;;11.23;;
10565;SDS011;5331;48.148;16.326;2024-03-06T15:16:12;18.73;;;11.40;;
10565;SDS011;5331;48.148;16.326;2024-03-06T15:18:39;16.02;;;11.77;;
10565;SDS011;5331;48.148;16.326;2024-03-06T15:21:06;17.05;;;11.02;;
10565;SDS011;5331;48.148;16.326;2024-03-06T15:23:32;14.52;;;10.65;;
10565;SDS011;5331;48.148;16.326;2024-03-06T15:39:09;15.40;;;11.88;;
10565;SDS011;5331;48.148;16.326;2024-03-06T15:41:35;16.38;;;11.88;;
10565;SDS011;5331;48.148;16.326;2024-03-06T15:44:01;17.42;;;11.60;;
10565;SDS011;5331;48.148;16.326;2024-03-06T15:46:27;16.13;;;11.40;;
10565;SDS011;5331;48.148;16.326;2024-03-06T15:49:19;16.75;;;11.85;;
10565;SDS011;5331;48.148;16.326;2024-03-06T15:52:01;25.10;;;15.68;;
10565;SDS011;5331;48.148;16.326;2024-03-06T15:54:28;17.33;;;12.35;;
10565;SDS011;5331;48.148;16.326;2024-03-06T16:10:09;16.90;;;12.30;;
10565;SDS011;5331;48.148;16.326;2024-03-06T16:12:35;15.20;;;11.20;;
10565;SDS011;5331;48.148;16.326;2024-03-06T16:15:02;17.27;;;11.68;;
10565;SDS011;5331;48.148;16.326;2024-03-06T16:17:29;16.98;;;12.13;;
10565;SDS011;5331;48.148;16.326;2024-03-06T16:19:55;15.07;;;11.23;;
10565;SDS011;5331;48.148;16.326;2024-03-06T16:22:21;18.40;;;12.07;;
10565;SDS011;5331;48.148;16.326;2024-03-06T16:24:48;17.20;;;11.60;;
10565;SDS011;5331;48.148;16.326;2024-03-06T16:41:18;16.45;;;12.07;;
10565;SDS011;5331;48.148;16.326;2024-03-06T16:43:45;17.15;;;11.80;;
10565;SDS011;5331;48.148;16.326;2024-03-06T16:46:11;17.52;;;11.48;;
10565;SDS011;5331;48.148;16.326;2024-03-06T16:48:37;18.90;;;12.50;;
10565;SDS011;5331;48.148;16.326;2024-03-06T16:51:03;16.73;;;12.48;;
10565;SDS011;5331;48.148;16.326;2024-03-06T16:53:30;18.77;;;12.02;;
10565;SDS011;5331;48.148;16.326;2024-03-06T16:55:56;18.52;;;13.07;;
10565;SDS011;5331;48.148;16.326;2024-03-06T16:58:23;20.00;;;12.85;;
10565;SDS011;5331;48.148;16.326;2024-03-06T17:16:13;17.90;;;13.38;;
10565;SDS011;5331;48.148;16.326;2024-03-06T17:18:39;15.80;;;13.10;;
10565;SDS011;5331;48.148;16.326;2024-03-06T17:21:06;20.27;;;13.70;;
10565;SDS011;5331;48.148;16.326;2024-03-06T17:23:33;21.27;;;13.52;;
10565;SDS011;5331;48.148;16.326;2024-03-06T17:26:00;21.03;;;14.40;;
10565;SDS011;5331;48.148;16.326;2024-03-06T17:28:27;18.30;;;13.70;;
10565;SDS011;5331;48.148;16.326;2024-03-06T17:30:53;18.03;;;13.77;;
10565;SDS011;5331;48.148;16.326;2024-03-06T17:50:34;18.88;;;12.75;;
10565;SDS011;5331;48.148;16.326;2024-03-06T17:53:01;18.00;;;12.30;;
10565;SDS011;5331;48.148;16.326;2024-03-06T17:55:28;20.63;;;13.00;;
10565;SDS011;5331;48.148;16.326;2024-03-06T17:57:55;19.00;;;13.07;;
10565;SDS011;5331;48.148;16.326;2024-03-06T18:00:21;19.30;;;12.48;;
10565;SDS011;5331;48.148;16.326;2024-03-06T18:02:47;19.05;;;12.85;;
10565;SDS011;5331;48.148;16.326;2024-03-06T18:05:13;18.58;;;12.98;;
10565;SDS011;5331;48.148;16.326;2024-03-06T18:20:54;19.23;;;14.23;;
10565;SDS011;5331;48.148;16.326;2024-03-06T18:23:20;17.90;;;12.77;;
10565;SDS011;5331;48.148;16.326;2024-03-06T18:25:49;18.63;;;12.68;;
10565;SDS011;5331;48.148;16.326;2024-03-06T18:28:17;17.33;;;12.43;;
10565;SDS011;5331;48.148;16.326;2024-03-06T18:30:43;19.73;;;12.73;;
10565;SDS011;5331;48.148;16.326;2024-03-06T18:33:10;16.75;;;13.07;;
10565;SDS011;5331;48.148;16.326;2024-03-06T18:35:36;18.58;;;12.93;;
10565;SDS011;5331;48.148;16.326;2024-03-06T18:53:31;18.00;;;12.63;;
10565;SDS011;5331;48.148;16.326;2024-03-06T18:55:57;15.57;;;12.40;;
10565;SDS011;5331;48.148;16.326;2024-03-06T18:58:23;18.38;;;12.70;;
10565;SDS011;5331;48.148;16.326;2024-03-06T19:00:50;16.02;;;11.45;;
10565;SDS011;5331;48.148;16.326;2024-03-06T19:03:16;15.23;;;12.23;;
10565;SDS011;5331;48.148;16.326;2024-03-06T19:05:42;15.57;;;11.97;;
10565;SDS011;5331;48.148;16.326;2024-03-06T19:08:09;15.77;;;12.17;;
10565;SDS011;5331;48.148;16.326;2024-03-06T19:24:20;15.18;;;11.75;;
10565;SDS011;5331;48.148;16.326;2024-03-06T19:26:47;15.00;;;11.88;;
10565;SDS011;5331;48.148;16.326;2024-03-06T19:29:13;15.77;;;12.07;;
10565;SDS011;5331;48.148;16.326;2024-03-06T19:31:39;15.30;;;11.13;;
10565;SDS011;5331;48.148;16.326;2024-03-06T19:34:05;16.48;;;12.00;;
10565;SDS011;5331;48.148;16.326;2024-03-06T19:36:32;15.63;;;11.40;;
10565;SDS011;5331;48.148;16.326;2024-03-06T19:38:58;14.90;;;11.23;;
10565;SDS011;5331;48.148;16.326;2024-03-06T19:41:25;14.53;;;11.30;;
10565;SDS011;5331;48.148;16.326;2024-03-06T19:59:13;14.63;;;11.90;;
10565;SDS011;5331;48.148;16.326;2024-03-06T20:01:40;14.00;;;11.77;;
10565;SDS011;5331;48.148;16.326;2024-03-06T20:04:07;16.53;;;12.53;;
10565;SDS011;5331;48.148;16.326;2024-03-06T20:06:33;14.97;;;12.33;;
10565;SDS011;5331;48.148;16.326;2024-03-06T20:08:59;16.00;;;12.23;;
10565;SDS011;5331;48.148;16.326;2024-03-06T20:11:29;13.53;;;11.77;;
10565;SDS011;5331;48.148;16.326;2024-03-06T20:13:56;13.90;;;11.67;;
10565;SDS011;5331;48.148;16.326;2024-03-06T20:34:15;14.80;;;11.82;;
10565;SDS011;5331;48.148;16.326;2024-03-06T20:36:43;17.23;;;11.98;;
10565;SDS011;5331;48.148;16.326;2024-03-06T20:39:09;14.40;;;11.83;;
10565;SDS011;5331;48.148;16.326;2024-03-06T20:41:40;15.23;;;12.40;;
10565;SDS011;5331;48.148;16.326;2024-03-06T20:44:06;18.83;;;13.50;;
10565;SDS011;5331;48.148;16.326;2024-03-06T20:46:33;18.03;;;13.33;;
10565;SDS011;5331;48.148;16.326;2024-03-06T20:48:59;18.87;;;13.27;;
10565;SDS011;5331;48.148;16.326;2024-03-06T21:04:27;20.50;;;14.63;;
10565;SDS011;5331;48.148;16.326;2024-03-06T21:06:54;21.30;;;14.30;;
10565;SDS011;5331;48.148;16.326;2024-03-06T21:09:20;22.03;;;15.20;;
10565;SDS011;5331;48.148;16.326;2024-03-06T21:11:46;20.10;;;15.13;;
10565;SDS011;5331;48.148;16.326;2024-03-06T21:14:14;21.43;;;15.77;;
10565;SDS011;5331;48.148;16.326;2024-03-06T21:16:40;21.07;;;15.90;;
10565;SDS011;5331;48.148;16.326;2024-03-06T21:19:06;24.20;;;16.93;;
10565;SDS011;5331;48.148;16.326;2024-03-06T21:35:20;21.90;;;16.42;;
10565;SDS011;5331;48.148;16.326;2024-03-06T21:37:46;19.60;;;15.10;;
10565;SDS011;5331;48.148;16.326;2024-03-06T21:40:13;21.53;;;15.37;;
10565;SDS011;5331;48.148;16.326;2024-03-06T21:42:39;22.30;;;16.23;;
10565;SDS011;5331;48.148;16.326;2024-03-06T21:45:07;20.03;;;15.17;;
10565;SDS011;5331;48.148;16.326;2024-03-06T21:47:33;22.67;;;16.13;;
10565;SDS011;5331;48.148;16.326;2024-03-06T21:50:00;20.80;;;15.67;;
10565;SDS011;5331;48.148;16.326;2024-03-06T21:52:31;20.57;;;16.60;;
10565;SDS011;5331;48.148;16.326;2024-03-06T22:10:25;21.45;;;15.77;;
10565;SDS011;5331;48.148;16.326;2024-03-06T22:12:52;21.65;;;15.13;;
10565;SDS011;5331;48.148;16.326;2024-03-06T22:15:18;20.83;;;15.93;;
10565;SDS011;5331;48.148;16.326;2024-03-06T22:17:44;20.33;;;15.63;;
10565;SDS011;5331;48.148;16.326;2024-03-06T22:20:12;22.97;;;17.33;;
10565;SDS011;5331;48.148;16.326;2024-03-06T22:22:38;20.27;;;15.43;;
10565;SDS011;5331;48.148;16.326;2024-03-06T22:25:05;24.57;;;17.33;;
10565;SDS011;5331;48.148;16.326;2024-03-06T22:27:33;22.20;;;16.90;;
10565;SDS011;5331;48.148;16.326;2024-03-06T22:47:36;23.70;;;16.90;;
10565;SDS011;5331;48.148;16.326;2024-03-06T22:50:03;23.50;;;17.30;;
10565;SDS011;5331;48.148;16.326;2024-03-06T22:52:29;24.47;;;16.77;;
10565;SDS011;5331;48.148;16.326;2024-03-06T22:54:56;24.27;;;17.30;;
10565;SDS011;5331;48.148;16.326;2024-03-06T22:57:22;23.77;;;17.73;;
10565;SDS011;5331;48.148;16.326;2024-03-06T22:59:48;25.67;;;18.13;;
10565;SDS011;5331;48.148;16.326;2024-03-06T23:02:15;25.57;;;18.37;;
10565;SDS011;5331;48.148;16.326;2024-03-06T23:21:31;22.37;;;17.23;;
10565;SDS011;5331;48.148;16.326;2024-03-06T23:24:00;24.03;;;15.83;;
10565;SDS011;5331;48.148;16.326;2024-03-06T23:26:27;21.30;;;15.87;;
10565;SDS011;5331;48.148;16.326;2024-03-06T23:28:53;22.00;;;16.83;;
10565;SDS011;5331;48.148;16.326;2024-03-06T23:31:20;22.43;;;16.93;;
10565;SDS011;5331;48.148;16.326;2024-03-06T23:33:46;22.40;;;16.40;;
10565;SDS011;5331;48.148;16.326;2024-03-06T23:36:12;21.93;;;16.33;;
10565;SDS011;5331;48.148;16.326;2024-03-06T23:38:39;24.03;;;17.13;;
10565;SDS011;5331;48.148;16.326;2024-03-06T23:55:01;16.10;;;13.37;;
10565;SDS011;5331;48.148;16.326;2024-03-06T23:57:31;15.73;;;12.77;;
